Hide A Way Lake, Texas
Current Conditions -  °F | °C
As of 12:53 AM on Wednesday 22 Oct 2014 (Local Time) from KTYR Reporting Station
Clear Clear  
Wind Chill: 65°   Ceiling: Unl
Heat Index: 65°   Visibility: 7mi
Dew Point: 60°   Wind: 0mph
Humidity: 84%   Direction: NA
Pressure: 30.06"   Gusts: NA
Location:  32.5326°N, 95.4249°W
Report Text: KTYR 220553Z 00000KT 7SM CLR 18/16 A3006 RMK AO2 SLP175 T01830156 10233 20178 402780133 58001
Loading
Personal Weather Stations






























Interactive Weather Map
Tropical Storm Tracking
New forecast layout! Learn more

10-Day Weather Forecast

Advertisements
Track Severe Weather on mobile